The Forks Plt, Maine
Current Conditions -  °F | °C
As of 3:15 PM on Saturday 20 Dec 2014 (Local Time) from KWVL Reporting Station
Overcast Overcast  
Wind Chill: 13°   Ceiling: 1300
Heat Index: 21°   Visibility: 10mi
Dew Point: 12°   Wind: 7mph
Humidity: 68%   Direction: 30°NNE
Pressure: 30.29"   Gusts: NA
Location:  45.3915°N, 69.9186°W
Report Text: KWVL 202015Z 03006KT 10SM OVC013 M06/M11 A3029 RMK AO1
Loading
Personal Weather Stations






























Interactive Weather Map New forecast layout! Learn more

10-Day Weather Forecast

Advertisements
Track Severe Weather on mobile